createdAt,value
2022-10-22T00:01:14.283Z,5.88
2022-10-22T00:03:42.657Z,7.25
2022-10-22T00:06:11.152Z,5.65
2022-10-22T00:08:39.572Z,7.90
2022-10-22T00:11:11.988Z,6.82
2022-10-22T00:13:40.428Z,4.85
2022-10-22T00:16:10.763Z,8.70
2022-10-22T00:18:39.493Z,6.47
2022-10-22T00:21:08.125Z,5.13
2022-10-22T00:23:36.920Z,6.55
2022-10-22T00:26:06.446Z,5.78
2022-10-22T00:28:34.933Z,8.65
2022-10-22T00:31:03.436Z,7.50
2022-10-22T00:33:33.218Z,9.00
2022-10-22T00:36:01.633Z,4.93
2022-10-22T00:38:30.078Z,5.55
2022-10-22T00:40:58.495Z,7.13
2022-10-22T00:43:26.929Z,4.97
2022-10-22T00:45:55.365Z,7.05
2022-10-22T00:48:25.146Z,7.63
2022-10-22T00:50:58.757Z,6.68
2022-10-22T00:53:28.524Z,5.55
2022-10-22T00:55:57.357Z,7.93
2022-10-22T00:58:28.004Z,7.78
2022-10-22T01:00:56.762Z,6.22
2022-10-22T01:03:25.177Z,9.23
2022-10-22T01:05:57.829Z,7.72
2022-10-22T01:08:28.523Z,8.32
2022-10-22T01:10:59.510Z,5.55
2022-10-22T01:13:33.770Z,5.57
2022-10-22T01:16:08.434Z,5.88
2022-10-22T01:18:39.023Z,7.85
2022-10-22T01:21:12.533Z,10.90
2022-10-22T01:24:07.873Z,6.75
2022-10-22T01:26:43.508Z,8.32
2022-10-22T01:29:15.289Z,7.10
2022-10-22T01:31:45.821Z,6.40
2022-10-22T01:34:16.703Z,7.10
2022-10-22T01:36:45.786Z,8.43
2022-10-22T01:39:15.236Z,8.27
2022-10-22T01:41:45.421Z,5.90
2022-10-22T01:44:25.987Z,11.65
2022-10-22T01:46:57.375Z,9.75
2022-10-22T01:49:29.036Z,7.28
2022-10-22T01:52:03.975Z,7.03
2022-10-22T01:54:34.816Z,10.02
2022-10-22T01:57:09.877Z,10.27
2022-10-22T01:59:47.064Z,7.20
2022-10-22T02:02:20.318Z,5.97
2022-10-22T02:04:50.578Z,8.82
2022-10-22T02:07:21.132Z,8.60
2022-10-22T02:09:50.377Z,12.13
2022-10-22T02:12:19.641Z,11.95
2022-10-22T02:14:50.062Z,6.78
2022-10-22T02:17:20.411Z,8.25
2022-10-22T02:19:50.394Z,8.50
2022-10-22T02:22:18.987Z,7.70
2022-10-22T02:24:47.392Z,6.72
2022-10-22T02:27:25.746Z,8.65
2022-10-22T02:29:59.629Z,5.82
2022-10-22T02:32:30.124Z,9.35
2022-10-22T02:34:58.788Z,9.15
2022-10-22T02:37:27.841Z,7.40
2022-10-22T02:39:56.344Z,7.95
2022-10-22T02:42:26.389Z,8.25
2022-10-22T02:44:54.737Z,9.15
2022-10-22T02:47:24.584Z,9.60
2022-10-22T02:49:53.205Z,8.50
2022-10-22T02:52:21.822Z,6.57
2022-10-22T02:54:50.146Z,7.55
2022-10-22T02:57:18.528Z,9.27
2022-10-22T02:59:47.001Z,10.63
2022-10-22T03:02:15.544Z,6.18
2022-10-22T03:04:45.323Z,7.70
2022-10-22T03:07:13.658Z,8.20
2022-10-22T03:09:42.013Z,10.95
2022-10-22T03:12:10.365Z,6.28
2022-10-22T03:14:38.690Z,9.15
2022-10-22T03:17:07.056Z,7.03
2022-10-22T03:19:35.740Z,11.07
2022-10-22T03:22:07.761Z,7.13
2022-10-22T03:24:37.949Z,8.57
2022-10-22T03:27:06.296Z,9.55
2022-10-22T03:29:35.743Z,7.82
2022-10-22T03:32:04.078Z,9.57
2022-10-22T03:34:32.395Z,8.88
2022-10-22T03:37:01.448Z,13.77
2022-10-22T03:39:31.777Z,6.88
2022-10-22T03:42:00.302Z,9.25
2022-10-22T03:44:29.426Z,11.63
2022-10-22T03:47:00.224Z,6.75
2022-10-22T03:49:30.934Z,9.68
2022-10-22T03:51:59.380Z,10.93
2022-10-22T03:54:27.799Z,10.73
2022-10-22T03:56:57.581Z,9.35
2022-10-22T03:59:25.959Z,12.15
2022-10-22T04:01:54.388Z,10.88
2022-10-22T04:04:22.791Z,7.50
2022-10-22T04:06:51.171Z,9.90
2022-10-22T04:09:19.549Z,9.70
2022-10-22T04:11:47.958Z,11.88
2022-10-22T04:14:17.754Z,10.00
2022-10-22T04:16:46.157Z,8.00
2022-10-22T04:19:15.253Z,9.07
2022-10-22T04:21:43.617Z,9.90
2022-10-22T04:24:12.005Z,7.10
2022-10-22T04:26:40.370Z,7.38
2022-10-22T04:29:11.942Z,7.95
2022-10-22T04:31:45.024Z,9.05
2022-10-22T04:34:13.438Z,7.65
2022-10-22T04:36:41.840Z,8.68
2022-10-22T04:39:10.231Z,7.57
2022-10-22T04:41:39.664Z,10.80
2022-10-22T04:44:11.145Z,13.25
2022-10-22T04:46:42.510Z,7.85
2022-10-22T04:49:12.355Z,7.57
2022-10-22T04:51:40.758Z,11.07
2022-10-22T04:54:09.152Z,7.53
2022-10-22T04:56:37.555Z,7.45
2022-10-22T04:59:06.795Z,7.40
2022-10-22T05:01:39.943Z,10.65
2022-10-22T05:04:13.598Z,9.48
2022-10-22T05:06:42.050Z,11.88
2022-10-22T05:09:12.809Z,9.27
2022-10-22T05:11:42.019Z,9.38
2022-10-22T05:14:11.642Z,10.82
2022-10-22T05:16:40.082Z,11.60
2022-10-22T05:19:09.078Z,13.52
2022-10-22T05:21:39.548Z,10.07
2022-10-22T05:24:08.440Z,7.90
2022-10-22T05:26:36.824Z,9.98
2022-10-22T05:29:05.189Z,10.48
2022-10-22T05:31:33.551Z,9.85
2022-10-22T05:34:01.962Z,10.38
2022-10-22T05:36:30.362Z,8.20
2022-10-22T05:39:02.201Z,13.63
2022-10-22T05:41:30.892Z,13.18
2022-10-22T05:43:59.994Z,12.57
2022-10-22T05:46:29.940Z,12.50
2022-10-22T05:48:59.155Z,13.57
2022-10-22T05:51:28.168Z,9.18
2022-10-22T05:53:57.739Z,13.27
2022-10-22T05:56:28.024Z,12.27
2022-10-22T05:58:56.563Z,9.45
2022-10-22T06:01:27.342Z,11.98
2022-10-22T06:03:56.511Z,11.02
2022-10-22T06:06:29.911Z,13.45
2022-10-22T06:09:01.773Z,9.65
2022-10-22T06:11:34.321Z,9.85
2022-10-22T06:14:03.692Z,11.95
2022-10-22T06:16:32.511Z,9.80
2022-10-22T06:19:02.036Z,14.23
2022-10-22T06:21:31.122Z,12.60
2022-10-22T06:23:59.702Z,16.35
2022-10-22T06:26:28.429Z,15.68
2022-10-22T06:28:58.609Z,15.38
2022-10-22T06:31:27.846Z,13.38
2022-10-22T06:33:56.309Z,12.43
2022-10-22T06:36:25.414Z,15.65
2022-10-22T06:38:53.870Z,16.52
2022-10-22T06:41:24.396Z,18.92
2022-10-22T06:43:55.848Z,13.85
2022-10-22T06:46:26.178Z,13.48
2022-10-22T06:48:55.622Z,15.20
2022-10-22T06:51:24.239Z,12.23
2022-10-22T06:53:52.957Z,13.70
2022-10-22T06:56:23.102Z,13.88
2022-10-22T06:58:52.246Z,14.15
2022-10-22T07:01:21.812Z,10.32
2022-10-22T07:03:52.353Z,12.30
2022-10-22T07:06:21.235Z,13.77
2022-10-22T07:08:49.742Z,14.18
2022-10-22T07:11:19.078Z,17.13
2022-10-22T07:13:47.796Z,10.63
2022-10-22T07:16:16.802Z,14.52
2022-10-22T07:18:45.549Z,11.10
2022-10-22T07:21:16.024Z,11.38
2022-10-22T07:23:45.104Z,11.15
2022-10-22T07:26:14.274Z,10.90
2022-10-22T07:28:42.612Z,13.23
2022-10-22T07:31:12.220Z,13.50
2022-10-22T07:33:40.629Z,11.32
2022-10-22T07:36:10.090Z,10.23
2022-10-22T07:38:39.911Z,11.93
2022-10-22T07:41:08.434Z,11.70
2022-10-22T07:43:37.071Z,7.60
2022-10-22T07:46:05.486Z,10.43
2022-10-22T07:48:33.929Z,10.93
2022-10-22T07:51:02.302Z,8.13
2022-10-22T07:53:30.657Z,7.97
2022-10-22T07:56:00.350Z,7.82
2022-10-22T07:58:28.758Z,6.25
2022-10-22T08:00:57.501Z,11.77
2022-10-22T08:03:25.949Z,7.97
2022-10-22T08:05:54.729Z,7.45
2022-10-22T08:08:25.952Z,8.27
2022-10-22T08:10:58.651Z,8.98
2022-10-22T08:13:30.488Z,6.65
2022-10-22T08:15:59.135Z,8.50
2022-10-22T08:18:27.508Z,9.70
2022-10-22T08:20:55.936Z,9.82
2022-10-22T08:23:27.599Z,8.82
2022-10-22T08:25:56.993Z,6.03
2022-10-22T08:28:25.470Z,6.20
2022-10-22T08:30:55.149Z,7.68
2022-10-22T08:33:23.663Z,5.68
2022-10-22T08:35:52.296Z,7.55
2022-10-22T08:38:21.076Z,8.35
2022-10-22T08:40:51.327Z,5.72
2022-10-22T08:43:39.681Z,9.88
2022-10-22T08:46:18.955Z,8.48
2022-10-22T08:48:48.420Z,7.55
2022-10-22T08:51:18.343Z,9.05
2022-10-22T08:53:52.585Z,6.80
2022-10-22T08:56:23.705Z,8.35
2022-10-22T08:58:55.557Z,6.22
2022-10-22T09:01:29.127Z,6.57
2022-10-22T09:03:59.440Z,7.30
2022-10-22T09:06:29.673Z,5.50
2022-10-22T09:08:59.465Z,6.18
2022-10-22T09:11:29.810Z,8.02
2022-10-22T09:13:59.211Z,6.53
2022-10-22T09:16:34.218Z,5.20
2022-10-22T09:19:06.238Z,6.75
2022-10-22T09:21:39.654Z,5.82
2022-10-22T09:24:13.199Z,5.15
2022-10-22T09:26:42.490Z,8.65
2022-10-22T09:29:18.959Z,7.45
2022-10-22T09:31:49.049Z,7.55
2022-10-22T09:34:18.069Z,7.05
2022-10-22T09:36:46.428Z,6.78
2022-10-22T09:39:24.813Z,8.93
2022-10-22T09:41:53.237Z,7.22
2022-10-22T09:44:21.934Z,4.90
2022-10-22T09:46:51.887Z,5.88
2022-10-22T09:49:21.254Z,9.20
2022-10-22T09:51:53.859Z,7.90
2022-10-22T09:54:23.666Z,4.38
2022-10-22T09:56:56.955Z,5.97
2022-10-22T09:59:32.399Z,8.50
2022-10-22T10:02:13.770Z,6.55
2022-10-22T10:04:50.081Z,9.35
2022-10-22T10:07:19.572Z,6.90
2022-10-22T10:09:48.093Z,3.97
2022-10-22T10:12:24.001Z,6.35
2022-10-22T10:14:56.006Z,6.07
2022-10-22T10:17:29.250Z,8.82
2022-10-22T10:20:05.217Z,7.32
2022-10-22T10:22:40.911Z,6.80
2022-10-22T10:25:16.550Z,5.72
2022-10-22T10:27:46.307Z,5.53
2022-10-22T10:30:15.917Z,8.63
2022-10-22T10:32:55.957Z,8.13
2022-10-22T10:35:27.333Z,7.55
2022-10-22T10:38:02.731Z,5.57
2022-10-22T10:40:33.957Z,4.18
2022-10-22T10:43:04.636Z,5.60
2022-10-22T10:45:36.417Z,4.50
2022-10-22T10:48:22.200Z,6.07
2022-10-22T10:51:01.821Z,6.63
2022-10-22T10:53:37.736Z,5.57
2022-10-22T10:56:09.508Z,3.83
2022-10-22T10:58:46.031Z,6.60
2022-10-22T11:01:18.635Z,6.40
2022-10-22T11:04:07.935Z,3.85
2022-10-22T11:06:39.486Z,5.13
2022-10-22T11:09:13.125Z,6.85
2022-10-22T11:11:42.975Z,4.45
2022-10-22T11:14:13.344Z,4.65
2022-10-22T11:16:44.991Z,5.32
2022-10-22T11:19:22.900Z,6.18
2022-10-22T11:22:05.285Z,6.93
2022-10-22T11:24:37.742Z,6.85
2022-10-22T11:27:08.948Z,8.70
2022-10-22T11:29:39.615Z,7.55
2022-10-22T11:32:08.561Z,6.25
2022-10-22T11:34:41.430Z,4.85
2022-10-22T11:37:13.647Z,8.02
2022-10-22T11:39:43.337Z,6.90
2022-10-22T11:42:14.231Z,7.07
2022-10-22T11:45:00.669Z,8.10
2022-10-22T11:47:29.933Z,7.63
2022-10-22T11:50:00.629Z,7.10
2022-10-22T11:52:42.271Z,8.50
2022-10-22T11:55:30.919Z,4.72
2022-10-22T11:58:00.994Z,5.25
2022-10-22T12:00:35.745Z,6.13
2022-10-22T12:03:06.056Z,4.22
2022-10-22T12:05:37.841Z,4.10
2022-10-22T12:08:17.713Z,7.80
2022-10-22T12:10:57.665Z,5.45
2022-10-22T12:13:27.125Z,6.63
2022-10-22T12:15:56.704Z,5.38
2022-10-22T12:18:26.781Z,4.55
2022-10-22T12:20:55.513Z,7.85
2022-10-22T12:23:28.887Z,5.68
2022-10-22T12:25:57.361Z,6.30
2022-10-22T12:28:25.733Z,4.25
2022-10-22T12:30:54.130Z,6.68
2022-10-22T12:33:23.207Z,3.45
2022-10-22T12:35:57.451Z,8.05
2022-10-22T12:38:27.178Z,6.05
2022-10-22T12:40:56.775Z,4.20
2022-10-22T12:43:26.759Z,3.88
2022-10-22T12:45:55.548Z,6.63
2022-10-22T12:48:25.883Z,4.63
2022-10-22T12:50:55.314Z,9.13
2022-10-22T12:53:26.024Z,5.50
2022-10-22T12:55:56.646Z,4.78
2022-10-22T12:58:31.756Z,5.75
2022-10-22T13:01:02.166Z,6.88
2022-10-22T13:03:32.795Z,7.22
2022-10-22T13:06:13.688Z,6.97
2022-10-22T13:08:42.121Z,3.65
2022-10-22T13:11:12.846Z,4.68
2022-10-22T13:13:45.659Z,5.13
2022-10-22T13:16:18.135Z,4.28
2022-10-22T13:18:46.691Z,4.13
2022-10-22T13:21:26.413Z,4.47
2022-10-22T13:23:56.088Z,2.92
2022-10-22T13:26:29.031Z,4.88
2022-10-22T13:28:57.920Z,5.32
2022-10-22T13:31:27.038Z,3.22
2022-10-22T13:33:57.036Z,3.97
2022-10-22T13:36:25.609Z,4.38
2022-10-22T13:38:53.992Z,3.65
2022-10-22T13:41:23.792Z,4.15
2022-10-22T13:43:53.926Z,7.57
2022-10-22T13:46:22.953Z,4.80
2022-10-22T13:48:52.584Z,6.55
2022-10-22T13:51:22.233Z,5.93
2022-10-22T13:53:51.253Z,5.10
2022-10-22T13:56:20.828Z,3.63
2022-10-22T13:58:49.820Z,4.40
2022-10-22T14:01:21.046Z,4.28
2022-10-22T14:03:49.902Z,4.35
2022-10-22T14:06:19.243Z,4.93
2022-10-22T14:08:50.494Z,3.20
2022-10-22T14:11:19.299Z,2.92
2022-10-22T14:13:50.084Z,2.60
2022-10-22T14:16:21.649Z,3.72
2022-10-22T14:18:50.645Z,3.58
2022-10-22T14:21:21.564Z,5.45
2022-10-22T14:23:51.638Z,3.80
2022-10-22T14:26:23.445Z,7.72
2022-10-22T14:31:42.585Z,3.15
2022-10-22T14:34:12.253Z,6.30
2022-10-22T14:36:43.568Z,3.80
2022-10-22T14:39:12.108Z,5.35
2022-10-22T14:41:40.952Z,3.53
2022-10-22T14:44:12.604Z,4.20
2022-10-22T14:46:44.300Z,5.32
2022-10-22T14:49:12.986Z,5.78
2022-10-22T14:51:41.384Z,2.95
2022-10-22T14:54:09.778Z,6.72
2022-10-22T14:56:38.615Z,7.20
2022-10-22T14:59:07.088Z,3.90
2022-10-22T15:01:35.483Z,6.68
2022-10-22T15:04:05.350Z,5.00
2022-10-22T15:06:33.731Z,5.35
2022-10-22T15:09:02.245Z,4.70
2022-10-22T15:11:30.698Z,5.97
2022-10-22T15:13:59.079Z,5.05
2022-10-22T15:16:27.479Z,4.05
2022-10-22T15:18:57.169Z,3.08
2022-10-22T15:21:26.956Z,4.45
2022-10-22T15:23:55.471Z,5.95
2022-10-22T15:26:23.876Z,3.70
2022-10-22T15:28:52.257Z,5.80
2022-10-22T15:31:40.701Z,2.65
2022-10-22T15:34:09.084Z,5.95
2022-10-22T15:36:38.853Z,3.95
2022-10-22T15:39:10.676Z,5.10
2022-10-22T15:41:39.132Z,7.22
2022-10-22T15:44:08.630Z,6.63
2022-10-22T15:46:37.602Z,4.00
2022-10-22T15:49:06.379Z,4.57
2022-10-22T15:51:34.721Z,3.85
2022-10-22T15:54:06.615Z,3.17
2022-10-22T15:56:38.462Z,3.95
2022-10-22T15:59:06.891Z,2.85
2022-10-22T16:01:36.353Z,4.68
2022-10-22T16:04:05.174Z,5.13
2022-10-22T16:06:35.398Z,5.63
2022-10-22T16:09:06.560Z,4.55
2022-10-22T16:11:35.012Z,4.45
2022-10-22T16:14:07.223Z,6.75
2022-10-22T16:16:39.781Z,5.88
2022-10-22T16:19:08.181Z,4.90
2022-10-22T16:21:36.527Z,5.32
2022-10-22T16:24:06.648Z,4.60
2022-10-22T16:26:36.012Z,3.45
2022-10-22T16:29:04.446Z,3.70
2022-10-22T16:31:32.972Z,6.10
2022-10-22T16:34:01.474Z,4.65
2022-10-22T16:36:29.889Z,5.28
2022-10-22T16:38:58.303Z,3.72
2022-10-22T16:41:34.931Z,4.47
2022-10-22T16:44:03.905Z,6.43
2022-10-22T16:46:33.357Z,5.13
2022-10-22T16:49:01.934Z,6.60
2022-10-22T16:51:30.535Z,6.75
2022-10-22T16:53:59.286Z,9.20
2022-10-22T16:56:32.136Z,10.73
2022-10-22T16:59:00.512Z,10.60
2022-10-22T17:01:30.013Z,10.80
2022-10-22T17:04:00.625Z,14.73
2022-10-22T17:06:29.076Z,9.82
2022-10-22T17:08:57.540Z,9.10
2022-10-22T17:11:26.328Z,9.35
2022-10-22T17:13:56.189Z,15.15
2022-10-22T17:16:26.323Z,12.95
2022-10-22T17:18:55.523Z,12.52
2022-10-22T17:21:24.054Z,10.07
2022-10-22T17:23:56.066Z,10.95
2022-10-22T17:26:26.445Z,8.60
2022-10-22T17:28:56.603Z,7.60
2022-10-22T17:31:25.910Z,11.27
2022-10-22T17:33:55.278Z,8.50
2022-10-22T17:36:24.344Z,8.68
2022-10-22T17:38:53.892Z,7.15
2022-10-22T17:41:23.941Z,7.18
2022-10-22T17:43:52.620Z,7.75
2022-10-22T17:46:23.319Z,7.78
2022-10-22T17:48:52.151Z,8.02
2022-10-22T17:51:21.027Z,7.50
2022-10-22T17:53:51.248Z,9.52
2022-10-22T17:56:20.650Z,8.32
2022-10-22T17:58:49.028Z,7.53
2022-10-22T18:01:23.955Z,8.48
2022-10-22T18:03:52.570Z,8.18
2022-10-22T18:06:21.215Z,8.68
2022-10-22T18:08:49.930Z,9.55
2022-10-22T18:11:20.225Z,9.40
2022-10-22T18:13:50.842Z,6.57
2022-10-22T18:16:19.717Z,5.28
2022-10-22T18:18:49.967Z,5.30
2022-10-22T18:21:19.144Z,4.20
2022-10-22T18:23:47.993Z,7.25
2022-10-22T18:26:17.969Z,9.15
2022-10-22T18:28:51.791Z,7.60
2022-10-22T18:31:21.666Z,6.20
2022-10-22T18:33:52.023Z,8.20
2022-10-22T18:36:21.781Z,9.43
2022-10-22T18:38:51.509Z,7.97
2022-10-22T18:41:20.523Z,8.63
2022-10-22T18:43:52.083Z,8.80
2022-10-22T18:46:20.762Z,5.80
2022-10-22T18:48:49.210Z,9.13
2022-10-22T18:51:19.103Z,10.77
2022-10-22T18:53:59.074Z,10.05
2022-10-22T18:56:35.938Z,6.15
2022-10-22T18:59:04.346Z,8.90
2022-10-22T19:01:35.502Z,6.93
2022-10-22T19:04:03.987Z,9.35
2022-10-22T19:06:36.739Z,10.27
2022-10-22T19:09:05.693Z,7.57
2022-10-22T19:11:34.251Z,12.98
2022-10-22T19:14:02.803Z,7.47
2022-10-22T19:16:31.331Z,7.82
2022-10-22T19:19:03.877Z,7.55
2022-10-22T19:21:32.528Z,10.30
2022-10-22T19:24:03.266Z,7.50
2022-10-22T19:26:32.806Z,10.00
2022-10-22T19:29:01.694Z,8.45
2022-10-22T19:31:31.377Z,6.07
2022-10-22T19:34:00.609Z,7.05
2022-10-22T19:36:30.217Z,8.07
2022-10-22T19:38:59.058Z,6.80
2022-10-22T19:41:30.046Z,6.93
2022-10-22T19:43:59.226Z,6.53
2022-10-22T19:46:28.466Z,6.68
2022-10-22T19:48:57.499Z,6.25
2022-10-22T19:51:26.762Z,6.38
2022-10-22T19:53:59.378Z,10.88
2022-10-22T19:56:29.433Z,7.53
2022-10-22T19:58:58.083Z,6.78
2022-10-22T20:01:26.858Z,9.40
2022-10-22T20:03:55.689Z,10.60
2022-10-22T20:06:25.147Z,5.88
2022-10-22T20:08:56.027Z,6.55
2022-10-22T20:11:25.717Z,8.15
2022-10-22T20:13:56.685Z,5.97
2022-10-22T20:16:26.035Z,7.90
2022-10-22T20:18:54.821Z,8.27
2022-10-22T20:21:23.617Z,10.43
2022-10-22T20:23:54.145Z,10.60
2022-10-22T20:26:23.926Z,7.70
2022-10-22T20:28:52.493Z,7.85
2022-10-22T20:31:24.033Z,8.98
2022-10-22T20:33:52.811Z,7.20
2022-10-22T20:36:22.878Z,7.55
2022-10-22T20:38:51.979Z,10.18
2022-10-22T20:41:21.587Z,11.85
2022-10-22T20:43:51.434Z,6.60
2022-10-22T20:46:20.778Z,8.23
2022-10-22T20:48:50.973Z,9.27
2022-10-22T20:51:19.452Z,7.15
2022-10-22T20:53:48.055Z,6.00
2022-10-22T20:56:16.686Z,4.97
2022-10-22T20:58:48.354Z,8.90
2022-10-22T21:01:21.509Z,8.40
2022-10-22T21:03:52.151Z,5.88
2022-10-22T21:08:50.770Z,9.98
2022-10-22T21:11:19.702Z,9.15
2022-10-22T21:13:48.172Z,9.27
2022-10-22T21:16:17.395Z,7.82
2022-10-22T21:18:45.808Z,7.43
2022-10-22T21:21:14.269Z,6.13
2022-10-22T21:23:42.634Z,6.47
2022-10-22T21:26:12.417Z,9.23
2022-10-22T21:28:40.970Z,8.15
2022-10-22T21:31:10.292Z,7.88
2022-10-22T21:33:39.245Z,11.18
2022-10-22T21:36:09.078Z,7.55
2022-10-22T21:38:37.984Z,5.85
2022-10-22T21:41:07.110Z,11.18
2022-10-22T21:43:38.636Z,6.57
2022-10-22T21:46:08.491Z,7.75
2022-10-22T21:48:37.543Z,7.95
2022-10-22T21:51:09.381Z,8.40
2022-10-22T21:53:38.395Z,7.18
2022-10-22T21:56:07.610Z,5.82
2022-10-22T21:58:37.854Z,7.32
2022-10-22T22:01:06.540Z,8.43
2022-10-22T22:03:35.118Z,9.85
2022-10-22T22:06:04.822Z,8.27
2022-10-22T22:08:34.422Z,9.32
2022-10-22T22:11:03.575Z,8.40
2022-10-22T22:13:32.438Z,9.52
2022-10-22T22:16:03.229Z,7.55
2022-10-22T22:18:32.655Z,12.50
2022-10-22T22:21:01.500Z,7.95
2022-10-22T22:23:30.136Z,8.70
2022-10-22T22:26:00.484Z,8.70
2022-10-22T22:28:29.029Z,13.40
2022-10-22T22:30:58.065Z,13.15
2022-10-22T22:33:28.292Z,10.20
2022-10-22T22:35:59.743Z,6.35
2022-10-22T22:38:28.136Z,10.75
2022-10-22T22:40:56.587Z,10.50
2022-10-22T22:43:25.030Z,9.82
2022-10-22T22:46:00.391Z,10.68
2022-10-22T22:48:30.184Z,10.20
2022-10-22T22:51:00.046Z,10.63
2022-10-22T22:53:28.933Z,7.40
2022-10-22T22:56:07.712Z,7.50
2022-10-22T22:58:36.808Z,9.90
2022-10-22T23:01:12.337Z,8.43
2022-10-22T23:03:42.363Z,10.38
2022-10-22T23:06:10.879Z,9.35
2022-10-22T23:08:39.703Z,8.38
2022-10-22T23:11:09.290Z,6.50
2022-10-22T23:13:38.136Z,6.18
2022-10-22T23:16:07.656Z,11.13
2022-10-22T23:18:36.225Z,8.20
2022-10-22T23:21:06.981Z,9.40
2022-10-22T23:23:35.851Z,7.65
2022-10-22T23:26:04.297Z,6.07
2022-10-22T23:28:32.735Z,6.78
2022-10-22T23:31:01.365Z,9.20
2022-10-22T23:33:29.838Z,9.43
2022-10-22T23:35:58.250Z,6.50
2022-10-22T23:38:28.000Z,6.88
2022-10-22T23:40:57.022Z,7.72
2022-10-22T23:43:25.491Z,6.65
2022-10-22T23:45:54.419Z,8.80
2022-10-22T23:48:23.096Z,9.55
2022-10-22T23:53:28.838Z,6.80
2022-10-22T23:55:58.733Z,8.57
2022-10-22T23:58:27.153Z,11.27
